Time;durP1;ratioP1;P1;durP2;ratioP2;P2;SDS_P1;SDS_P2;PMS_P1;PMS_P2;Temp;Humidity;BMP_temperature;BMP_pressure;BME280_temperature;BME280_humidity;BME280_pressure;Samples;Min_cycle;Max_cycle;Signal;HPM_P1;HPM_P2
2023/04/15 00:01:59;;;;;;;12.98;5.57;;;7.80;99.90;;;;;;5092667;28;20173;-54
2023/04/15 00:04:25;;;;;;;14.52;5.95;;;7.90;99.90;;;;;;5093767;28;20047;-57
2023/04/15 00:06:52;;;;;;;;;;;7.90;99.90;;;;;;5102013;27;20036;-54
2023/04/15 00:09:18;;;;;;;7.93;4.60;;;7.80;99.90;;;;;;5093304;28;19931;-55
2023/04/15 00:11:45;;;;;;;11.75;5.63;;;7.80;99.90;;;;;;5109451;28;20050;-55
2023/04/15 00:14:11;;;;;;;8.23;5.20;;;7.80;99.90;;;;;;5109906;28;20035;-53
2023/04/15 00:16:37;;;;;;;8.18;5.03;;;7.70;99.90;;;;;;5094708;28;20035;-57
2023/04/15 00:19:02;;;;;;;8.07;6.00;;;7.70;99.90;;;;;;5091893;28;20477;-56
2023/04/15 00:21:28;;;;;;;10.47;6.37;;;7.70;99.90;;;;;;5106969;28;20548;-56
2023/04/15 00:23:54;;;;;;;6.47;5.57;;;7.70;99.90;;;;;;5091311;28;20036;-57
2023/04/15 00:26:19;;;;;;;10.57;5.93;;;7.70;99.90;;;;;;5105112;28;20300;-56
2023/04/15 00:28:45;;;;;;;10.23;6.20;;;7.70;99.90;;;;;;5107896;28;20032;-57
2023/04/15 00:31:11;;;;;;;8.02;6.82;;;7.60;99.90;;;;;;5100433;28;20043;-56
2023/04/15 00:33:37;;;;;;;9.75;6.85;;;7.60;99.90;;;;;;5091716;28;20397;-56
2023/04/15 00:36:03;;;;;;;6.80;5.87;;;7.60;99.90;;;;;;5099406;28;20076;-53
2023/04/15 00:38:29;;;;;;;;;;;7.60;99.90;;;;;;5107209;28;20782;-57
2023/04/15 00:40:55;;;;;;;8.98;6.43;;;7.60;99.90;;;;;;5102789;28;19926;-56
2023/04/15 00:43:21;;;;;;;8.63;6.60;;;7.50;99.90;;;;;;5098105;28;20048;-56
2023/04/15 00:45:46;;;;;;;9.53;6.50;;;7.50;99.90;;;;;;5094813;28;20416;-56
2023/04/15 00:48:12;;;;;;;7.87;6.10;;;7.50;99.90;;;;;;5107567;28;20039;-56
2023/04/15 00:50:38;;;;;;;14.30;7.15;;;7.50;99.90;;;;;;5106100;28;20047;-56
2023/04/15 00:53:03;;;;;;;9.38;6.47;;;7.50;99.90;;;;;;5090978;28;20103;-57
2023/04/15 00:55:29;;;;;;;12.70;6.50;;;7.40;99.90;;;;;;5098174;28;20039;-55
2023/04/15 00:57:56;;;;;;;7.10;5.83;;;7.40;99.90;;;;;;5091927;28;20085;-56
2023/04/15 01:00:22;;;;;;;9.00;6.18;;;7.40;99.90;;;;;;5090370;28;20325;-57
2023/04/15 01:02:49;;;;;;;10.00;6.45;;;7.40;99.90;;;;;;5108991;28;20091;-55
2023/04/15 01:05:17;;;;;;;10.38;6.82;;;7.40;99.90;;;;;;5109881;28;20035;-56
2023/04/15 01:07:43;;;;;;;6.93;6.20;;;7.40;99.90;;;;;;5096115;28;20385;-56
2023/04/15 01:10:09;;;;;;;10.50;7.07;;;7.30;99.90;;;;;;5096254;28;20133;-53
2023/04/15 01:12:36;;;;;;;12.98;7.40;;;7.30;99.90;;;;;;5094703;28;20075;-54
2023/04/15 01:15:02;;;;;;;10.90;6.63;;;7.30;99.90;;;;;;5090615;28;20039;-57
2023/04/15 01:17:28;;;;;;;11.73;6.32;;;7.30;99.90;;;;;;5095614;28;20032;-57
2023/04/15 01:19:56;;;;;;;10.23;6.97;;;7.30;99.90;;;;;;5091356;28;20035;-56
2023/04/15 01:22:23;;;;;;;7.97;6.45;;;7.30;99.90;;;;;;5102769;28;20032;-54
2023/04/15 01:24:54;;;;;;;;;;;7.20;99.90;;;;;;5092123;28;20508;-56
2023/04/15 01:27:20;;;;;;;12.90;6.65;;;7.10;99.90;;;;;;5095295;28;19926;-55
2023/04/15 01:29:46;;;;;;;14.48;6.80;;;7.20;99.90;;;;;;5090731;28;20079;-57
2023/04/15 01:32:11;;;;;;;9.03;7.53;;;7.20;99.90;;;;;;5099901;28;20077;-54
2023/04/15 01:34:37;;;;;;;7.40;6.70;;;7.10;99.90;;;;;;5109073;28;20269;-56
2023/04/15 01:37:02;;;;;;;8.20;6.87;;;7.10;99.90;;;;;;5099158;28;20027;-56
2023/04/15 01:39:28;;;;;;;9.67;7.67;;;7.10;99.90;;;;;;5088863;28;20520;-56
2023/04/15 01:41:53;;;;;;;11.97;7.50;;;7.00;99.90;;;;;;5096607;28;20035;-53
2023/04/15 01:44:19;;;;;;;12.63;7.77;;;7.00;99.90;;;;;;5098195;28;20118;-54
2023/04/15 01:46:45;;;;;;;8.27;6.32;;;7.00;99.90;;;;;;5096859;28;20032;-57
2023/04/15 01:49:11;;;;;;;11.80;6.90;;;6.90;99.90;;;;;;5087601;28;20063;-54
2023/04/15 01:51:36;;;;;;;9.00;7.45;;;6.90;99.90;;;;;;5096599;28;20043;-56
2023/04/15 01:54:02;;;;;;;9.80;6.93;;;6.90;99.90;;;;;;5090617;28;20031;-57
2023/04/15 01:56:28;;;;;;;10.68;6.93;;;6.80;99.90;;;;;;5102186;28;20044;-55
2023/04/15 01:58:54;;;;;;;7.55;6.82;;;6.80;99.90;;;;;;5094686;28;20042;-57
2023/04/15 02:01:20;;;;;;;12.27;7.63;;;6.70;99.90;;;;;;5107727;28;20464;-53
2023/04/15 02:03:46;;;;;;;9.70;8.10;;;6.70;99.90;;;;;;5090706;28;20173;-54
2023/04/15 02:06:12;;;;;;;7.93;7.20;;;6.60;99.90;;;;;;5090569;28;20036;-57
2023/04/15 02:08:37;;;;;;;11.83;7.90;;;6.50;99.90;;;;;;5092685;28;20467;-57
2023/04/15 02:11:03;;;;;;;9.82;8.30;;;6.50;99.90;;;;;;5089272;28;20297;-56
2023/04/15 02:13:29;;;;;;;12.07;9.20;;;6.40;99.90;;;;;;5103765;28;20160;-56
2023/04/15 02:15:54;;;;;;;10.83;8.90;;;6.40;99.90;;;;;;5106988;28;20280;-53
2023/04/15 02:18:20;;;;;;;10.02;8.30;;;6.30;99.90;;;;;;5105518;28;20051;-56
2023/04/15 02:20:46;;;;;;;13.33;9.40;;;6.30;99.90;;;;;;5093912;28;20054;-57
2023/04/15 02:23:12;;;;;;;14.00;8.80;;;6.30;99.90;;;;;;5100029;28;20039;-56
2023/04/15 02:25:37;;;;;;;11.75;8.88;;;6.20;99.90;;;;;;5107022;28;20352;-57
2023/04/15 02:28:05;;;;;;;9.43;8.52;;;6.20;99.90;;;;;;5098095;28;20544;-54
2023/04/15 02:30:32;;;;;;;11.32;9.50;;;6.20;99.90;;;;;;5090554;28;20118;-56
2023/04/15 02:32:57;;;;;;;14.02;9.05;;;6.20;99.90;;;;;;5088769;28;20035;-57
2023/04/15 02:35:24;;;;;;;10.57;8.40;;;6.20;99.90;;;;;;5089543;28;20412;-56
2023/04/15 02:37:50;;;;;;;10.45;9.02;;;6.10;99.90;;;;;;5094555;28;20038;-56
2023/04/15 02:40:16;;;;;;;10.95;8.32;;;6.10;99.90;;;;;;5100584;28;20071;-56
2023/04/15 02:42:43;;;;;;;10.38;8.75;;;6.10;99.90;;;;;;5094002;28;20116;-57
2023/04/15 02:45:09;;;;;;;11.65;8.43;;;6.00;99.90;;;;;;5106076;28;20031;-56
2023/04/15 02:47:35;;;;;;;;;;;6.00;99.90;;;;;;5104621;28;20398;-55
2023/04/15 02:50:02;;;;;;;9.13;8.23;;;6.00;99.90;;;;;;5088784;28;19924;-56
2023/04/15 02:52:28;;;;;;;13.85;8.90;;;5.90;99.90;;;;;;5090079;28;20067;-55
2023/04/15 02:54:59;;;;;;;11.17;9.60;;;5.90;99.90;;;;;;5092551;28;21841;-56
2023/04/15 02:57:27;;;;;;;11.00;9.23;;;5.80;99.90;;;;;;5104653;28;20027;-55
2023/04/15 02:59:53;;;;;;;11.60;8.95;;;5.80;99.90;;;;;;5095095;28;20035;-56
2023/04/15 03:02:18;;;;;;;9.90;8.90;;;5.80;99.90;;;;;;5101682;28;20047;-56
2023/04/15 03:04:44;;;;;;;10.17;8.43;;;5.70;99.90;;;;;;5093487;28;20036;-57
2023/04/15 03:07:09;;;;;;;12.00;9.53;;;5.70;99.90;;;;;;5093146;28;20128;-56
2023/04/15 03:09:35;;;;;;;12.20;9.63;;;5.70;99.90;;;;;;5107205;28;20031;-57
2023/04/15 03:12:01;;;;;;;16.17;9.80;;;5.70;99.90;;;;;;5109031;28;20373;-57
2023/04/15 03:14:27;;;;;;;14.50;10.85;;;5.70;99.90;;;;;;5106460;28;20504;-56
2023/04/15 03:16:52;;;;;;;10.50;9.40;;;5.70;99.90;;;;;;5110798;28;20130;-54
2023/04/15 03:19:18;;;;;;;12.00;10.03;;;5.70;99.90;;;;;;5098305;28;20032;-56
2023/04/15 03:21:43;;;;;;;12.83;9.20;;;5.70;99.90;;;;;;5092814;28;20028;-55
2023/04/15 03:24:09;;;;;;;15.47;10.43;;;5.80;99.90;;;;;;5103129;28;20031;-57
2023/04/15 03:26:35;;;;;;;12.87;10.73;;;5.70;99.90;;;;;;5110991;28;20589;-56
2023/04/15 03:29:01;;;;;;;13.45;11.10;;;5.80;99.90;;;;;;5101665;28;20034;-55
2023/04/15 03:31:26;;;;;;;17.33;9.33;;;5.80;99.90;;;;;;5101373;28;20047;-56
2023/04/15 03:33:52;;;;;;;14.10;10.30;;;5.80;99.90;;;;;;5101391;28;20035;-56
2023/04/15 03:36:17;;;;;;;18.93;11.43;;;5.80;99.90;;;;;;5110146;28;20130;-55
2023/04/15 03:38:43;;;;;;;24.40;11.47;;;5.80;99.90;;;;;;5105130;28;20200;-57
2023/04/15 03:41:08;;;;;;;15.60;10.67;;;5.80;99.90;;;;;;5094549;28;20071;-57
2023/04/15 03:43:34;;;;;;;15.80;11.23;;;5.80;99.90;;;;;;5108067;28;20063;-57
2023/04/15 03:46:00;;;;;;;15.38;11.93;;;5.80;99.90;;;;;;5092804;28;20044;-56
2023/04/15 03:48:26;;;;;;;12.32;10.27;;;5.90;99.90;;;;;;5093376;28;20462;-57
2023/04/15 03:50:51;;;;;;;17.83;11.77;;;5.90;99.90;;;;;;5108999;28;20032;-55
2023/04/15 03:53:17;;;;;;;16.17;12.63;;;5.90;99.90;;;;;;5110734;28;20035;-56
2023/04/15 03:55:43;;;;;;;14.27;12.10;;;5.90;99.90;;;;;;5098183;28;20489;-57
2023/04/15 03:58:11;;;;;;;18.70;13.35;;;5.90;99.90;;;;;;5109823;27;20531;-56
2023/04/15 04:00:37;;;;;;;17.15;13.07;;;5.80;99.90;;;;;;5076405;28;20039;-53
2023/04/15 04:03:03;;;;;;;15.93;11.68;;;5.80;99.90;;;;;;5108921;28;20035;-58
2023/04/15 04:05:29;;;;;;;17.73;12.47;;;5.80;99.90;;;;;;5097135;28;20058;-56
2023/04/15 04:07:55;;;;;;;17.30;11.60;;;5.80;99.90;;;;;;5091235;28;20067;-58
2023/04/15 04:10:20;;;;;;;16.92;11.27;;;5.80;99.90;;;;;;5097300;28;20483;-53
2023/04/15 04:12:46;;;;;;;13.20;10.10;;;5.70;99.90;;;;;;5090279;28;20040;-57
2023/04/15 04:15:12;;;;;;;15.53;9.70;;;5.70;99.90;;;;;;5110668;28;20038;-55
2023/04/15 04:17:37;;;;;;;19.47;11.37;;;5.70;99.90;;;;;;5109605;28;20115;-55
2023/04/15 04:20:04;;;;;;;14.83;10.97;;;5.70;99.90;;;;;;5091181;28;20289;-57
2023/04/15 04:22:30;;;;;;;14.18;11.73;;;5.70;99.90;;;;;;5094177;28;20075;-57
2023/04/15 04:24:58;;;;;;;16.98;11.68;;;5.70;99.90;;;;;;5104611;28;20127;-56
2023/04/15 04:27:24;;;;;;;12.95;10.90;;;5.60;99.90;;;;;;5096720;28;20381;-58
2023/04/15 04:29:49;;;;;;;15.63;11.15;;;5.60;99.90;;;;;;5093939;28;20493;-56
2023/04/15 04:32:15;;;;;;;13.47;11.23;;;5.60;99.90;;;;;;5096561;28;20050;-54
2023/04/15 04:34:41;;;;;;;14.88;11.00;;;5.60;99.90;;;;;;5096662;28;20084;-53
2023/04/15 04:37:06;;;;;;;14.97;10.80;;;5.60;99.90;;;;;;5091353;28;20078;-57
2023/04/15 04:39:32;;;;;;;20.93;12.87;;;5.60;99.90;;;;;;5100809;28;20106;-57
2023/04/15 04:41:57;;;;;;;19.30;11.70;;;5.60;99.90;;;;;;5105045;28;20054;-55
2023/04/15 04:44:23;;;;;;;15.97;11.00;;;5.50;99.90;;;;;;5094212;28;20044;-57
2023/04/15 04:46:49;;;;;;;17.43;12.20;;;5.50;99.90;;;;;;5092822;28;20105;-56
2023/04/15 04:49:14;;;;;;;17.03;11.17;;;5.50;99.90;;;;;;5097987;28;20277;-55
2023/04/15 04:51:40;;;;;;;13.73;10.30;;;5.50;99.90;;;;;;5102239;28;20510;-55
2023/04/15 04:54:06;;;;;;;13.30;11.48;;;5.50;99.90;;;;;;5095276;28;20034;-57
2023/04/15 04:56:33;;;;;;;18.02;11.15;;;5.50;99.90;;;;;;5091316;28;20032;-55
2023/04/15 04:58:59;;;;;;;14.07;12.35;;;5.50;99.90;;;;;;5107143;28;20065;-57
2023/04/15 05:01:26;;;;;;;16.42;12.10;;;5.50;99.90;;;;;;5107927;28;20043;-53
2023/04/15 05:03:52;;;;;;;23.35;12.43;;;5.50;99.90;;;;;;5106331;28;20054;-56
2023/04/15 05:06:17;;;;;;;16.75;11.82;;;5.50;99.90;;;;;;5091104;28;20044;-56
2023/04/15 05:08:43;;;;;;;15.23;11.30;;;5.50;99.90;;;;;;5090716;28;20048;-55
2023/04/15 05:11:08;;;;;;;13.53;10.50;;;5.50;99.90;;;;;;5100955;28;20097;-57
2023/04/15 05:13:37;;;;;;;12.20;9.13;;;5.40;99.90;;;;;;5090828;28;20063;-56
2023/04/15 05:16:03;;;;;;;14.20;10.32;;;5.40;99.90;;;;;;5108405;28;20431;-56
2023/04/15 05:18:29;;;;;;;;;;;5.40;99.90;;;;;;5107514;28;20400;-55
2023/04/15 05:20:55;;;;;;;11.38;9.10;;;5.30;99.90;;;;;;5101003;28;19916;-57
2023/04/15 05:23:21;;;;;;;14.17;10.37;;;5.30;99.90;;;;;;5096803;28;20036;-57
2023/04/15 05:25:46;;;;;;;15.97;10.10;;;5.20;99.90;;;;;;5105198;28;20569;-56
2023/04/15 05:28:12;;;;;;;17.03;11.33;;;5.20;99.90;;;;;;5091674;28;20055;-55
2023/04/15 05:30:38;;;;;;;14.63;9.97;;;5.20;99.90;;;;;;5090769;28;20374;-57
2023/04/15 05:33:03;;;;;;;13.07;10.68;;;5.20;99.90;;;;;;5090893;28;20044;-57
2023/04/15 05:35:29;;;;;;;14.40;12.20;;;5.20;99.90;;;;;;5101203;28;20165;-57
2023/04/15 05:37:55;;;;;;;15.60;10.05;;;5.20;99.90;;;;;;5108349;28;20287;-55
2023/04/15 05:40:21;;;;;;;13.32;10.90;;;5.20;99.90;;;;;;5097208;28;20055;-54
2023/04/15 05:42:47;;;;;;;15.55;11.50;;;5.20;99.90;;;;;;5090518;28;20482;-56
2023/04/15 05:45:12;;;;;;;17.30;13.37;;;5.30;99.90;;;;;;5096962;28;20127;-55
2023/04/15 05:47:38;;;;;;;15.60;12.77;;;5.30;99.90;;;;;;5107876;28;20035;-55
2023/04/15 05:50:05;;;;;;;14.40;12.37;;;5.40;99.90;;;;;;5101405;28;20040;-57
2023/04/15 05:52:31;;;;;;;16.77;13.35;;;5.40;99.90;;;;;;5106536;28;20039;-55
2023/04/15 05:54:56;;;;;;;18.60;14.48;;;5.50;99.90;;;;;;5104104;28;20028;-57
2023/04/15 05:57:23;;;;;;;24.83;14.20;;;5.60;99.90;;;;;;5089772;28;20070;-55
2023/04/15 05:59:52;;;;;;;17.67;13.98;;;5.60;99.90;;;;;;5092577;28;20047;-57
2023/04/15 06:02:18;;;;;;;19.05;14.70;;;5.70;99.90;;;;;;5100924;28;20432;-55
2023/04/15 06:04:43;;;;;;;19.80;14.18;;;5.80;99.90;;;;;;5098267;28;20089;-57
2023/04/15 06:07:09;;;;;;;18.67;14.37;;;5.90;99.90;;;;;;5108309;28;20035;-55
2023/04/15 06:09:35;;;;;;;19.35;14.07;;;6.00;99.90;;;;;;5105580;28;20481;-57
2023/04/15 06:12:01;;;;;;;18.27;14.10;;;6.10;99.90;;;;;;5091011;28;20054;-56
2023/04/15 06:14:27;;;;;;;17.75;13.38;;;6.10;99.90;;;;;;5087965;28;20507;-57
2023/04/15 06:16:52;;;;;;;18.50;14.63;;;6.20;99.90;;;;;;5100146;28;20032;-56
2023/04/15 06:19:18;;;;;;;20.40;13.50;;;6.30;99.90;;;;;;5093616;28;20447;-56
2023/04/15 06:21:44;;;;;;;18.58;14.23;;;6.30;99.90;;;;;;5092014;28;20028;-56
2023/04/15 06:24:10;;;;;;;19.48;14.05;;;6.40;99.90;;;;;;5089521;28;20075;-56
2023/04/15 06:26:36;;;;;;;;;;;6.40;99.90;;;;;;5102053;28;20149;-53
2023/04/15 06:29:02;;;;;;;18.92;14.60;;;6.50;99.90;;;;;;5099945;28;19980;-55
2023/04/15 06:31:27;;;;;;;17.77;13.43;;;6.50;99.90;;;;;;5097713;28;20035;-54
2023/04/15 06:33:53;;;;;;;17.50;13.53;;;6.60;99.90;;;;;;5101313;28;20089;-56
2023/04/15 06:36:18;;;;;;;19.97;13.73;;;6.70;99.90;;;;;;5099129;28;20035;-57
2023/04/15 06:38:44;;;;;;;20.10;14.80;;;6.70;99.90;;;;;;5095055;28;20393;-57
2023/04/15 06:41:10;;;;;;;18.13;14.47;;;6.80;99.90;;;;;;5095918;28;20402;-56
2023/04/15 06:43:35;;;;;;;19.63;14.68;;;6.80;99.90;;;;;;5102283;28;20067;-58
2023/04/15 06:46:01;;;;;;;20.27;15.17;;;6.90;99.90;;;;;;5090781;28;20070;-58
2023/04/15 06:48:27;;;;;;;18.20;14.87;;;6.90;99.90;;;;;;5092994;28;20078;-57
2023/04/15 06:50:52;;;;;;;22.10;15.40;;;7.00;99.90;;;;;;5093145;28;20123;-56
2023/04/15 06:53:18;;;;;;;22.70;14.70;;;7.00;99.90;;;;;;5091247;28;20473;-57
2023/04/15 06:55:44;;;;;;;17.60;13.93;;;7.10;99.90;;;;;;5091359;28;20289;-56
2023/04/15 06:58:09;;;;;;;20.58;15.63;;;7.10;99.90;;;;;;5101638;28;20118;-57
2023/04/15 07:00:37;;;;;;;19.45;14.73;;;7.20;99.90;;;;;;5105371;28;20051;-57
2023/04/15 07:03:03;;;;;;;20.98;14.07;;;7.30;99.90;;;;;;5107468;28;20161;-55
2023/04/15 07:05:31;;;;;;;20.50;15.57;;;7.30;99.90;;;;;;5107774;28;20479;-57
2023/04/15 07:07:57;;;;;;;22.02;14.77;;;7.40;99.90;;;;;;5094853;28;20043;-54
2023/04/15 07:10:22;;;;;;;20.27;13.05;;;7.50;99.90;;;;;;5095588;28;20047;-57
2023/04/15 07:12:49;;;;;;;21.73;12.90;;;7.50;99.90;;;;;;5103528;28;20137;-55
2023/04/15 07:15:15;;;;;;;25.75;14.43;;;7.60;99.90;;;;;;5099226;28;20081;-56
2023/04/15 07:17:44;;;;;;;20.85;15.23;;;7.70;99.90;;;;;;5099617;28;20046;-53
2023/04/15 07:20:11;;;;;;;16.95;13.10;;;7.70;99.90;;;;;;5102231;28;20042;-56
2023/04/15 07:22:37;;;;;;;16.63;13.68;;;7.80;99.90;;;;;;5101498;28;20441;-56
2023/04/15 07:25:03;;;;;;;14.93;12.25;;;7.80;99.90;;;;;;5103498;28;20417;-57
2023/04/15 07:27:28;;;;;;;14.55;12.77;;;7.80;99.90;;;;;;5091944;28;20412;-58
2023/04/15 07:29:54;;;;;;;19.27;13.63;;;7.90;99.90;;;;;;5090696;28;20493;-54
2023/04/15 07:32:20;;;;;;;15.70;11.67;;;7.90;99.90;;;;;;5091209;28;20090;-57
2023/04/15 07:34:45;;;;;;;13.55;10.98;;;7.90;99.90;;;;;;5106720;28;20127;-54
2023/04/15 07:37:11;;;;;;;12.90;10.68;;;8.00;99.90;;;;;;5103052;28;20118;-57
2023/04/15 07:39:37;;;;;;;13.68;10.18;;;8.10;99.90;;;;;;5105551;28;20038;-56
2023/04/15 07:42:03;;;;;;;13.15;8.43;;;8.10;99.90;;;;;;5093918;28;20401;-56
2023/04/15 07:44:28;;;;;;;13.15;8.88;;;8.20;99.90;;;;;;5103481;28;20047;-56
2023/04/15 07:46:55;;;;;;;12.65;9.18;;;8.20;99.90;;;;;;5099880;28;20040;-56
2023/04/15 07:49:20;;;;;;;;;;;8.30;99.90;;;;;;5091000;28;20065;-57
2023/04/15 07:51:47;;;;;;;12.27;8.82;;;8.30;99.90;;;;;;5104825;28;20289;-56
2023/04/15 07:54:13;;;;;;;10.10;8.52;;;8.40;99.90;;;;;;5091037;28;20428;-57
2023/04/15 07:56:39;;;;;;;12.30;7.18;;;8.50;99.90;;;;;;5088163;28;20059;-57
2023/04/15 07:59:05;;;;;;;8.68;7.45;;;8.50;99.90;;;;;;5090771;28;20059;-58
2023/04/15 08:01:31;;;;;;;9.63;6.78;;;8.60;99.90;;;;;;5092933;28;20121;-56
2023/04/15 08:03:57;;;;;;;;;;;8.60;99.90;;;;;;5110262;28;20061;-57
2023/04/15 08:06:23;;;;;;;15.60;7.38;;;8.70;99.90;;;;;;5107653;28;20426;-57
2023/04/15 08:08:49;;;;;;;8.77;6.82;;;8.80;99.90;;;;;;5093649;28;20071;-56
2023/04/15 08:11:15;;;;;;;8.88;6.82;;;8.80;99.90;;;;;;5109317;28;20041;-57
2023/04/15 08:13:41;;;;;;;13.48;9.32;;;8.90;99.90;;;;;;5093919;28;20514;-57
2023/04/15 08:16:16;;;;;;;10.05;8.15;;;9.00;99.90;;;;;;5092762;28;20107;-57
2023/04/15 08:18:42;;;;;;;10.05;6.70;;;9.10;99.90;;;;;;5106025;28;20042;-57
2023/04/15 08:21:08;;;;;;;9.10;7.47;;;9.10;99.90;;;;;;5094710;28;20383;-56
2023/04/15 08:23:33;;;;;;;11.40;7.68;;;9.20;99.90;;;;;;5094159;28;20036;-58
2023/04/15 08:25:59;;;;;;;11.47;7.43;;;9.20;99.90;;;;;;5098639;28;20047;-57
2023/04/15 08:28:25;;;;;;;12.13;6.13;;;9.20;99.90;;;;;;5096817;28;20696;-57
2023/04/15 08:30:52;;;;;;;9.00;7.30;;;9.30;99.90;;;;;;5098108;28;20286;-57
2023/04/15 08:33:18;;;;;;;9.13;6.43;;;9.30;99.90;;;;;;5099091;28;20641;-56
2023/04/15 08:35:43;;;;;;;9.88;6.43;;;9.30;99.90;;;;;;5093080;28;20276;-57
2023/04/15 08:38:09;;;;;;;9.93;6.47;;;9.30;99.90;;;;;;5092753;28;20071;-57
2023/04/15 08:40:44;;;;;;;8.02;5.43;;;9.40;99.90;;;;;;5094391;28;20407;-57
2023/04/15 08:43:14;;;;;;;4.03;3.63;;;9.40;99.90;;;;;;5098539;28;20384;-55
2023/04/15 08:45:41;;;;;;;7.05;4.43;;;9.40;99.90;;;;;;5093502;28;20024;-58
2023/04/15 08:48:09;;;;;;;5.00;3.42;;;9.50;99.90;;;;;;5096453;28;20489;-56
2023/04/15 08:50:35;;;;;;;3.83;3.03;;;9.50;99.90;;;;;;5106117;28;20036;-57
2023/04/15 08:53:01;;;;;;;3.97;3.37;;;9.50;99.90;;;;;;5104225;28;20041;-56
2023/04/15 08:55:35;;;;;;;3.38;2.95;;;9.60;99.90;;;;;;5105858;28;20710;-56
2023/04/15 08:58:04;;;;;;;6.53;3.45;;;9.60;99.90;;;;;;5103770;28;20063;-58
2023/04/15 09:00:30;;;;;;;3.22;2.92;;;9.70;99.90;;;;;;5102679;28;20034;-56
2023/04/15 09:02:57;;;;;;;;;;;9.80;99.90;;;;;;5104073;27;20039;-57
2023/04/15 09:05:22;;;;;;;9.07;3.58;;;9.80;99.90;;;;;;5100447;28;19977;-54
2023/04/15 09:07:50;;;;;;;3.90;2.57;;;9.90;99.90;;;;;;5098393;28;20505;-56
2023/04/15 09:10:16;;;;;;;3.30;2.13;;;9.90;99.90;;;;;;5102195;28;20493;-58
2023/04/15 09:12:41;;;;;;;5.60;3.20;;;10.00;99.90;;;;;;5105644;28;20051;-57
2023/04/15 09:15:11;;;;;;;22.27;5.20;;;10.00;99.90;;;;;;5107881;28;20098;-56
2023/04/15 09:17:45;;;;;;;6.43;3.25;;;10.00;99.90;;;;;;5091684;28;20131;-58
2023/04/15 09:20:13;;;;;;;7.03;3.53;;;10.00;99.90;;;;;;5097727;27;20324;-57
2023/04/15 09:22:40;;;;;;;4.88;3.63;;;10.00;99.90;;;;;;5092696;28;20123;-59
2023/04/15 09:25:27;;;;;;;3.92;3.17;;;9.90;99.90;;;;;;5089345;28;20048;-56
2023/04/15 09:27:59;;;;;;;4.53;2.83;;;9.90;99.90;;;;;;5102453;28;20039;-57
2023/04/15 09:30:26;;;;;;;4.43;2.90;;;10.00;99.90;;;;;;5091890;28;20123;-56
2023/04/15 09:32:54;;;;;;;6.93;3.28;;;10.00;99.90;;;;;;5095603;28;20051;-52
2023/04/15 09:35:21;;;;;;;6.60;3.05;;;10.00;99.90;;;;;;5091557;28;20051;-54
2023/04/15 09:37:50;;;;;;;3.00;2.40;;;10.00;99.90;;;;;;5092045;28;20043;-58
2023/04/15 09:40:33;;;;;;;2.95;2.50;;;9.90;99.90;;;;;;5102986;28;20535;-57
2023/04/15 09:43:00;;;;;;;9.98;3.15;;;10.00;99.90;;;;;;5104153;28;20066;-56
2023/04/15 09:45:27;;;;;;;5.30;3.25;;;10.00;99.90;;;;;;5093880;28;20455;-57
2023/04/15 09:47:52;;;;;;;5.18;2.88;;;9.90;99.90;;;;;;5101830;28;20548;-55
2023/04/15 09:50:19;;;;;;;2.90;1.83;;;9.90;99.90;;;;;;5106801;28;20040;-53
2023/04/15 09:52:45;;;;;;;5.97;2.20;;;10.00;99.90;;;;;;5091281;28;20040;-55
2023/04/15 09:55:13;;;;;;;2.65;2.30;;;9.90;99.90;;;;;;5105777;28;20032;-57
2023/04/15 09:57:43;;;;;;;3.25;2.50;;;9.90;99.90;;;;;;5106091;28;20032;-55
2023/04/15 10:00:10;;;;;;;5.05;2.10;;;9.90;99.90;;;;;;5089897;28;20123;-56
2023/04/15 10:02:38;;;;;;;11.23;4.05;;;9.90;99.90;;;;;;5101170;28;20040;-56
2023/04/15 10:05:05;;;;;;;6.45;2.78;;;10.00;99.90;;;;;;5104091;28;20054;-59
2023/04/15 10:07:31;;;;;;;7.60;2.55;;;10.00;99.90;;;;;;5107590;28;20036;-56
2023/04/15 10:09:57;;;;;;;;;;;10.00;99.90;;;;;;5092569;28;20443;-56
2023/04/15 10:12:23;;;;;;;4.75;2.53;;;10.00;99.90;;;;;;5087933;28;20018;-58
2023/04/15 10:14:55;;;;;;;2.42;1.80;;;10.00;99.90;;;;;;5088205;28;20131;-58
2023/04/15 10:17:22;;;;;;;4.68;1.73;;;10.00;99.90;;;;;;5087979;28;20136;-58
2023/04/15 10:19:51;;;;;;;5.80;2.35;;;10.00;99.90;;;;;;5087523;28;20408;-58
2023/04/15 10:22:17;;;;;;;3.08;2.22;;;10.00;99.90;;;;;;5090382;28;20122;-58
2023/04/15 10:24:44;;;;;;;1.67;1.38;;;10.00;99.90;;;;;;5091944;28;20040;-56
2023/04/15 10:27:10;;;;;;;3.65;1.55;;;10.00;99.90;;;;;;5089112;28;20476;-57
2023/04/15 10:29:36;;;;;;;2.90;1.42;;;10.00;99.90;;;;;;5098941;28;20038;-57
2023/04/15 10:32:02;;;;;;;3.05;1.35;;;10.00;99.90;;;;;;5104769;28;20046;-58
2023/04/15 10:34:28;;;;;;;3.85;1.35;;;10.00;99.90;;;;;;5096791;28;20028;-57
2023/04/15 10:36:56;;;;;;;3.42;1.40;;;10.00;99.90;;;;;;5089406;28;20047;-55
2023/04/15 10:39:34;;;;;;;18.25;2.67;;;10.00;99.90;;;;;;5097524;28;20030;-56
2023/04/15 10:42:14;;;;;;;4.15;1.50;;;10.00;99.90;;;;;;5106738;28;20039;-57
2023/04/15 10:44:47;;;;;;;2.38;1.80;;;10.00;99.90;;;;;;5089908;28;20457;-57
2023/04/15 10:47:17;;;;;;;2.60;1.27;;;10.00;99.90;;;;;;5089367;28;20039;-57
2023/04/15 10:49:51;;;;;;;4.55;1.50;;;10.00;99.90;;;;;;5094414;28;20499;-56
2023/04/15 10:52:26;;;;;;;1.55;1.08;;;10.10;99.90;;;;;;5089243;28;20044;-56
2023/04/15 10:55:15;;;;;;;2.83;1.38;;;10.10;99.90;;;;;;5092156;28;20397;-54
2023/04/15 10:57:41;;;;;;;2.60;1.05;;;10.20;99.90;;;;;;5089198;28;20036;-55
2023/04/15 11:00:07;;;;;;;2.45;1.05;;;10.20;99.90;;;;;;5095844;28;20047;-56
2023/04/15 11:02:41;;;;;;;5.63;1.90;;;10.20;99.90;;;;;;5094481;28;20560;-58
2023/04/15 11:05:08;;;;;;;2.55;1.33;;;10.20;99.90;;;;;;5103084;28;20531;-59
2023/04/15 11:07:34;;;;;;;6.35;1.23;;;10.30;99.90;;;;;;5105559;28;20091;-57
2023/04/15 11:10:00;;;;;;;;;;;10.30;99.90;;;;;;5092782;28;20458;-57
2023/04/15 11:12:35;;;;;;;6.63;2.08;;;10.20;99.90;;;;;;5089327;28;20309;-55
2023/04/15 11:15:33;;;;;;;5.53;1.27;;;10.30;99.90;;;;;;5099084;28;20032;-58
2023/04/15 11:18:14;;;;;;;1.50;0.95;;;10.30;99.90;;;;;;5090503;28;20031;-56
2023/04/15 11:20:43;;;;;;;2.70;1.23;;;10.30;99.90;;;;;;5093129;28;20075;-56
2023/04/15 11:23:09;;;;;;;3.33;1.05;;;10.40;99.90;;;;;;5109653;28;20101;-55
2023/04/15 11:25:38;;;;;;;2.00;1.02;;;10.40;99.90;;;;;;5096393;28;20078;-58
2023/04/15 11:28:05;;;;;;;1.90;0.85;;;10.40;99.90;;;;;;5095410;28;20035;-57
2023/04/15 11:30:33;;;;;;;4.50;1.08;;;10.40;99.90;;;;;;5105822;28;20047;-58
2023/04/15 11:33:01;;;;;;;2.25;1.08;;;10.40;99.90;;;;;;5093077;28;20675;-55
2023/04/15 11:35:27;;;;;;;4.90;1.10;;;10.40;99.90;;;;;;5102558;28;20042;-57
2023/04/15 11:37:54;;;;;;;1.10;0.60;;;10.40;99.90;;;;;;5096559;28;20515;-58
2023/04/15 11:40:23;;;;;;;4.45;0.82;;;10.40;99.90;;;;;;5101502;28;20384;-59
2023/04/15 11:43:07;;;;;;;0.70;0.50;;;10.40;99.90;;;;;;5103462;28;20082;-56
2023/04/15 11:45:34;;;;;;;1.42;0.57;;;10.40;99.90;;;;;;5094368;28;20050;-57
2023/04/15 11:48:10;;;;;;;2.50;0.68;;;10.40;99.90;;;;;;5102757;28;20059;-58
2023/04/15 11:50:39;;;;;;;2.45;0.60;;;10.50;99.90;;;;;;5103888;28;20452;-55
2023/04/15 11:53:07;;;;;;;5.00;1.02;;;10.50;99.90;;;;;;5106462;28;20039;-58
2023/04/15 11:55:45;;;;;;;2.75;0.70;;;10.50;99.90;;;;;;5102868;28;20162;-58
2023/04/15 11:58:24;;;;;;;1.80;0.77;;;10.50;99.90;;;;;;5104896;28;20082;-57
2023/04/15 12:00:58;;;;;;;3.92;0.77;;;10.50;99.90;;;;;;5103929;28;20032;-56
2023/04/15 12:03:41;;;;;;;1.50;0.77;;;10.50;99.90;;;;;;5112687;28;20035;-58
2023/04/15 12:06:18;;;;;;;2.17;1.15;;;10.50;99.90;;;;;;5110841;28;20451;-58
2023/04/15 12:08:51;;;;;;;2.85;1.05;;;10.40;99.90;;;;;;5093320;28;20039;-58
2023/04/15 12:11:17;;;;;;;4.43;2.35;;;10.40;99.90;;;;;;5099175;28;20040;-56
2023/04/15 12:13:44;;;;;;;2.33;1.33;;;10.40;99.90;;;;;;5109946;28;20087;-58
2023/04/15 12:16:10;;;;;;;4.97;1.45;;;10.40;99.90;;;;;;5110768;28;20112;-56
2023/04/15 12:18:39;;;;;;;5.77;1.40;;;10.40;99.90;;;;;;5105487;28;20484;-56
2023/04/15 12:21:11;;;;;;;5.97;2.08;;;10.40;99.90;;;;;;5096251;28;20032;-56
2023/04/15 12:23:38;;;;;;;4.18;1.90;;;10.40;99.90;;;;;;5110959;28;20036;-58
2023/04/15 12:26:06;;;;;;;3.75;1.77;;;10.40;99.90;;;;;;5112088;28;20046;-57
2023/04/15 12:28:35;;;;;;;6.22;1.63;;;10.40;99.90;;;;;;5110041;28;20392;-57
2023/04/15 12:31:10;;;;;;;4.60;1.40;;;10.40;99.90;;;;;;5093788;28;20508;-57
2023/04/15 12:33:36;;;;;;;4.30;1.65;;;10.40;99.90;;;;;;5110280;28;20039;-56
2023/04/15 12:36:02;;;;;;;2.03;1.00;;;10.40;99.90;;;;;;5111808;28;20114;-58
2023/04/15 12:38:28;;;;;;;3.78;1.27;;;10.50;99.90;;;;;;5105024;28;20040;-58
2023/04/15 12:40:54;;;;;;;6.32;1.23;;;10.50;99.90;;;;;;5098681;28;20063;-58
2023/04/15 12:43:19;;;;;;;4.03;1.23;;;10.50;99.90;;;;;;5106076;28;20472;-57
2023/04/15 12:45:45;;;;;;;4.28;1.35;;;10.50;99.90;;;;;;5112366;27;20040;-55
2023/04/15 12:48:11;;;;;;;6.20;1.15;;;10.50;99.90;;;;;;5110264;28;20051;-57